»·PEaware :: FDX954 KMEM-KLAX

FDX954 :: KMEM-KLAX

FLIGHT INFORMATION

Flight Status: Arrived
Operator:
Federal Express
More flights by this operator :: More flights under this callsign
Pilot: Daniel C. (12704)
Aircraft: BOEING 777-300
(B773)
More flights by this aircraft type
Origin: KMEM Memphis Intl
United States
Destination: KLAX Los Angeles Intl
United States
More flights between these airports :: More routes between these airports
Route: +DUCKZ3 HELAR KLUBB J6 DRK J231 HIPPI GABBL HLYWD1
File this flight plan on PilotEdge
Remarks:
Altitude:
(Current/Filed)
320ft
Speed:
(Current/Filed)
480kts
Departed: 11-Jun-17 08:44 AM
Arrived: 11-Jun-17 12:07 PM
Distance/Time
Traveled:
1403nm/3:23
Distance/Time
To Go:
Arrived

Flight Plot

Page will automatically refresh every two minutes.

Flight plan parsing failed; only flown route is shown


Map Options




Map Legend


Flown Route
Filed Route
Departure Airport
Arrival Airport
Navaid (VOR, NDB)
Fix

Horizontal Profiles

Position Reports

Time Latitude Longitude Heading Altitude Ground
Speed
11-Jun-17 08:19 35.062837 -89.954379 91 354ft 0kts
11-Jun-17 08:20 35.062837 -89.954378 91 354ft 0kts
11-Jun-17 08:21 35.062837 -89.954378 91 354ft 0kts
11-Jun-17 08:22 35.062837 -89.954377 91 354ft 0kts
11-Jun-17 08:23 35.062837 -89.954377 91 354ft 0kts
11-Jun-17 08:24 35.062837 -89.954376 91 354ft 0kts
11-Jun-17 08:25 35.062837 -89.954375 91 354ft 0kts
11-Jun-17 08:26 35.062837 -89.954375 91 354ft 0kts
11-Jun-17 08:27 35.062837 -89.954374 91 354ft 0kts
11-Jun-17 08:28 35.062837 -89.954374 91 354ft 0kts
11-Jun-17 08:29 35.062837 -89.954373 91 354ft 0kts
11-Jun-17 08:30 35.062837 -89.954372 91 354ft 0kts
11-Jun-17 08:31 35.062837 -89.954372 91 354ft 0kts
11-Jun-17 08:32 35.062837 -89.954371 91 354ft 0kts
11-Jun-17 08:33 35.062837 -89.954371 91 354ft 0kts
11-Jun-17 08:34 35.062837 -89.954370 91 354ft 0kts
11-Jun-17 08:35 35.062839 -89.954449 91 354ft 2kts
11-Jun-17 08:36 35.062867 -89.955401 91 354ft 2kts
11-Jun-17 08:37 35.062881 -89.955882 91 354ft 0kts
11-Jun-17 08:38 35.061018 -89.955343 187 354ft 20kts
11-Jun-17 08:39 35.060407 -89.963082 270 354ft 24kts
11-Jun-17 08:40 35.059849 -89.965103 223 354ft 6kts
11-Jun-17 08:41 35.059321 -89.972976 272 354ft 38kts
11-Jun-17 08:42 35.064799 -89.977920 358 354ft 38kts
11-Jun-17 08:43 35.061975 -89.975424 178 354ft 32kts
11-Jun-17 08:44 35.054950 -89.975131 211 354ft 16kts
11-Jun-17 08:45 35.053697 -89.976063 179 354ft 0kts
11-Jun-17 08:46 35.031600 -89.975821 180 600ft 187kts
11-Jun-17 08:47 34.965997 -89.996871 228 2181ft 305kts
11-Jun-17 08:48 34.947256 -90.088765 257 6771ft 255kts
11-Jun-17 08:49 34.952554 -90.184225 278 8315ft 319kts
11-Jun-17 08:50 34.969554 -90.297894 274 10384ft 354kts
11-Jun-17 08:51 34.984104 -90.419707 276 12982ft 372kts
11-Jun-17 08:52 34.999331 -90.544525 275 13156ft 372kts
11-Jun-17 08:53 35.014718 -90.672760 275 14191ft 397kts
11-Jun-17 08:54 35.025296 -90.809408 267 16425ft 411kts
11-Jun-17 08:55 35.026815 -90.951114 271 18541ft 425kts
11-Jun-17 08:56 35.033244 -91.097175 270 20458ft 438kts
11-Jun-17 08:57 35.038704 -91.248072 270 22233ft 450kts
11-Jun-17 08:58 35.044136 -91.386149 271 23663ft 460kts
11-Jun-17 08:59 35.049179 -91.524729 271 24967ft 469kts
11-Jun-17 09:00 35.054615 -91.685316 270 26465ft 479kts
11-Jun-17 09:01 35.059921 -91.849780 270 27912ft 489kts
11-Jun-17 09:02 35.065081 -92.016906 270 29286ft 498kts
11-Jun-17 09:03 35.070023 -92.184397 271 31286ft 489kts
11-Jun-17 09:04 35.074671 -92.349570 271 32132ft 483kts
11-Jun-17 09:05 35.079053 -92.513159 271 32123ft 485kts
11-Jun-17 09:06 35.083240 -92.677766 271 32128ft 485kts
11-Jun-17 09:07 35.087201 -92.842233 270 32066ft 485kts
11-Jun-17 09:08 35.090938 -93.006598 271 32058ft 484kts
11-Jun-17 09:09 35.094451 -93.170963 270 32114ft 484kts
11-Jun-17 09:10 35.097734 -93.334864 270 32145ft 481kts
11-Jun-17 09:11 35.100797 -93.498843 270 32090ft 484kts
11-Jun-17 09:12 35.103650 -93.663272 270 32096ft 482kts
11-Jun-17 09:13 35.106265 -93.827033 270 32073ft 484kts
11-Jun-17 09:14 35.108666 -93.991059 270 32094ft 480kts
11-Jun-17 09:15 35.110843 -94.154956 271 32054ft 483kts
11-Jun-17 09:16 35.112804 -94.318908 270 32035ft 484kts
11-Jun-17 09:17 35.114540 -94.482581 270 32075ft 482kts
11-Jun-17 09:18 35.116056 -94.646228 270 32071ft 482kts
11-Jun-17 09:19 35.117356 -94.810484 270 32112ft 481kts
11-Jun-17 09:20 35.118433 -94.974278 270 32039ft 482kts
11-Jun-17 09:21 35.119599 -95.137763 271 32082ft 481kts
11-Jun-17 09:22 35.120103 -95.300957 270 32062ft 480kts
11-Jun-17 09:23 35.120915 -95.464658 273 32048ft 481kts
11-Jun-17 09:24 35.138511 -95.626091 279 31993ft 480kts
11-Jun-17 09:25 35.158051 -95.787112 278 32005ft 480kts
11-Jun-17 09:26 35.177591 -95.948498 278 32004ft 479kts
11-Jun-17 09:27 35.195970 -96.109702 278 32043ft 480kts
11-Jun-17 09:28 35.212125 -96.252032 278 32075ft 474kts
11-Jun-17 09:29 35.230006 -96.412383 278 32029ft 477kts
11-Jun-17 09:30 35.247702 -96.573560 278 32010ft 474kts
11-Jun-17 09:31 35.265749 -96.733970 278 31940ft 480kts
11-Jun-17 09:32 35.283429 -96.894820 278 31969ft 479kts
11-Jun-17 09:33 35.300760 -97.055890 278 31985ft 474kts
11-Jun-17 09:34 35.317801 -97.216310 278 31958ft 475kts
11-Jun-17 09:35 35.334874 -97.376527 278 32008ft 473kts
11-Jun-17 09:36 35.351174 -97.536322 278 31930ft 471kts
11-Jun-17 09:37 35.359394 -97.697266 270 31974ft 475kts
11-Jun-17 09:38 35.354926 -97.858551 269 31953ft 472kts
11-Jun-17 09:39 35.351854 -98.019296 270 31980ft 473kts
11-Jun-17 09:40 35.349599 -98.179565 270 31968ft 470kts
11-Jun-17 09:41 35.346663 -98.340519 269 31901ft 473kts
11-Jun-17 09:42 35.343634 -98.500715 270 31897ft 473kts
11-Jun-17 09:43 35.340314 -98.660865 269 31937ft 470kts
11-Jun-17 09:44 35.336501 -98.820701 268 31980ft 471kts
11-Jun-17 09:45 35.332503 -98.981179 268 31961ft 468kts
11-Jun-17 09:46 35.328127 -99.140879 268 31972ft 469kts
11-Jun-17 09:47 35.323582 -99.300246 268 31853ft 469kts
11-Jun-17 09:48 35.319733 -99.459689 268 31939ft 468kts
11-Jun-17 09:49 35.315159 -99.618967 267 31904ft 467kts
11-Jun-17 09:50 35.310310 -99.777823 267 31873ft 466kts
11-Jun-17 09:51 35.305243 -99.936702 267 31865ft 470kts
11-Jun-17 09:52 35.299951 -100.096151 267 31900ft 466kts
11-Jun-17 09:53 35.294468 -100.254826 266 31955ft 466kts
11-Jun-17 09:54 35.288808 -100.412750 266 31929ft 464kts
11-Jun-17 09:55 35.282945 -100.570606 266 31971ft 463kts
11-Jun-17 09:56 35.276872 -100.728573 266 31944ft 463kts
11-Jun-17 09:57 35.270612 -100.886099 266 31942ft 462kts
11-Jun-17 09:58 35.264153 -101.043440 266 31863ft 467kts
11-Jun-17 09:59 35.257448 -101.201779 265 31934ft 465kts
11-Jun-17 10:00 35.250851 -101.359409 265 31901ft 463kts
11-Jun-17 10:01 35.243705 -101.516689 265 31880ft 463kts
11-Jun-17 10:02 35.236244 -101.674254 265 31931ft 464kts
11-Jun-17 10:03 35.231884 -101.831320 267 31902ft 462kts
11-Jun-17 10:04 35.228442 -101.988064 266 31913ft 463kts
11-Jun-17 10:05 35.224686 -102.144994 266 31950ft 460kts
11-Jun-17 10:06 35.221687 -102.290085 266 31992ft 458kts
11-Jun-17 10:07 35.217772 -102.446411 266 32001ft 460kts
11-Jun-17 10:08 35.213586 -102.602847 266 31933ft 459kts
11-Jun-17 10:09 35.209185 -102.759588 265 31932ft 462kts
11-Jun-17 10:10 35.204595 -102.915856 265 31953ft 460kts
11-Jun-17 10:11 35.199798 -103.072366 265 31950ft 458kts
11-Jun-17 10:12 35.194939 -103.228567 265 31948ft 463kts
11-Jun-17 10:13 35.189888 -103.384524 265 31952ft 457kts
11-Jun-17 10:14 35.185235 -103.514377 264 31895ft 459kts
11-Jun-17 10:15 35.179944 -103.670374 264 31879ft 460kts
11-Jun-17 10:16 35.173979 -103.852197 264 31911ft 460kts
11-Jun-17 10:17 35.169491 -103.981891 264 31983ft 458kts
11-Jun-17 10:18 35.164721 -104.137685 263 31959ft 458kts
11-Jun-17 10:19 35.159492 -104.293086 263 31983ft 458kts
11-Jun-17 10:20 35.153914 -104.448424 263 32062ft 458kts
11-Jun-17 10:21 35.148121 -104.603346 263 32047ft 457kts
11-Jun-17 10:22 35.141078 -104.785058 263 32061ft 457kts
11-Jun-17 10:23 35.135912 -104.914023 262 32118ft 457kts
11-Jun-17 10:24 35.128464 -105.094226 262 32104ft 456kts
11-Jun-17 10:25 35.122940 -105.223865 262 32149ft 458kts
11-Jun-17 10:26 35.116174 -105.378452 262 32135ft 457kts
11-Jun-17 10:27 35.109215 -105.532861 262 32127ft 455kts
11-Jun-17 10:28 35.102084 -105.686812 262 32203ft 455kts
11-Jun-17 10:29 35.094728 -105.841322 262 32169ft 454kts
11-Jun-17 10:30 35.087218 -105.994981 262 32165ft 455kts
11-Jun-17 10:31 35.079488 -106.149209 262 32134ft 456kts
11-Jun-17 10:32 35.071556 -106.303468 262 32143ft 453kts
11-Jun-17 10:33 35.063667 -106.456879 263 32106ft 452kts
11-Jun-17 10:34 35.055433 -106.610476 262 32120ft 454kts
11-Jun-17 10:35 35.046772 -106.763631 263 32075ft 452kts
11-Jun-17 10:36 35.040658 -106.917284 265 32088ft 453kts
11-Jun-17 10:37 35.036997 -107.070857 265 32075ft 452kts
11-Jun-17 10:38 35.032686 -107.223907 265 32059ft 455kts
11-Jun-17 10:39 35.028994 -107.377364 266 32100ft 454kts
11-Jun-17 10:40 35.025197 -107.512587 266 32113ft 450kts
11-Jun-17 10:41 35.020708 -107.662333 266 32152ft 452kts
11-Jun-17 10:42 35.015923 -107.815094 266 32080ft 450kts
11-Jun-17 10:43 35.011042 -107.964918 266 32196ft 452kts
11-Jun-17 10:44 35.005869 -108.117751 266 32165ft 446kts
11-Jun-17 10:45 35.000552 -108.269395 266 32151ft 449kts
11-Jun-17 10:46 34.995023 -108.421651 266 32123ft 453kts
11-Jun-17 10:47 34.989296 -108.574058 266 32147ft 448kts
11-Jun-17 10:48 34.983376 -108.726526 266 32158ft 448kts
11-Jun-17 10:49 34.977605 -108.878909 266 32179ft 450kts
11-Jun-17 10:50 34.971083 -109.031383 266 32012ft 451kts
11-Jun-17 10:51 34.964201 -109.184001 265 32084ft 452kts
11-Jun-17 10:52 34.953620 -109.336241 264 32143ft 448kts
11-Jun-17 10:53 34.943033 -109.487838 264 32106ft 450kts
11-Jun-17 10:54 34.932770 -109.640017 264 32077ft 452kts
11-Jun-17 10:55 34.922368 -109.792565 264 32080ft 449kts
11-Jun-17 10:56 34.911617 -109.943962 264 32056ft 450kts
11-Jun-17 10:57 34.900638 -110.095514 263 32113ft 451kts
11-Jun-17 10:58 34.889766 -110.247475 263 32099ft 450kts
11-Jun-17 10:59 34.878132 -110.399728 263 32080ft 450kts
11-Jun-17 11:00 34.866410 -110.552019 263 32025ft 454kts
11-Jun-17 11:01 34.854357 -110.704168 263 32044ft 451kts
11-Jun-17 11:02 34.842087 -110.855911 263 32026ft 452kts
11-Jun-17 11:03 34.830105 -111.008558 263 32048ft 452kts
11-Jun-17 11:04 34.818008 -111.160405 262 32018ft 452kts
11-Jun-17 11:05 34.805485 -111.312296 262 32068ft 452kts
11-Jun-17 11:06 34.792789 -111.463651 262 32068ft 450kts
11-Jun-17 11:07 34.779848 -111.615600 262 32058ft 452kts
11-Jun-17 11:08 34.766699 -111.767736 262 32059ft 454kts
11-Jun-17 11:09 34.753389 -111.919499 262 32070ft 451kts
11-Jun-17 11:10 34.739850 -112.071716 262 32090ft 455kts
11-Jun-17 11:11 34.726419 -112.224032 261 32044ft 449kts
11-Jun-17 11:12 34.712424 -112.374583 261 32011ft 448kts
11-Jun-17 11:13 34.697773 -112.525276 260 32063ft 449kts
11-Jun-17 11:14 34.679562 -112.675405 260 32006ft 448kts
11-Jun-17 11:15 34.661502 -112.825210 260 32018ft 448kts
11-Jun-17 11:16 34.643883 -112.974806 260 31989ft 450kts
11-Jun-17 11:17 34.626008 -113.124137 259 31967ft 446kts
11-Jun-17 11:18 34.607834 -113.273941 260 31898ft 446kts
11-Jun-17 11:19 34.589566 -113.423073 259 31827ft 450kts
11-Jun-17 11:20 34.570721 -113.572532 259 31847ft 448kts
11-Jun-17 11:21 34.553256 -113.721885 260 31851ft 448kts
11-Jun-17 11:22 34.536670 -113.871904 260 31840ft 446kts
11-Jun-17 11:23 34.520248 -114.016317 260 30685ft 414kts
11-Jun-17 11:24 34.497484 -114.149503 252 28947ft 397kts
11-Jun-17 11:25 34.468893 -114.276864 253 27091ft 385kts
11-Jun-17 11:26 34.442300 -114.400174 253 25294ft 373kts
11-Jun-17 11:27 34.416949 -114.519748 253 23935ft 361kts
11-Jun-17 11:28 34.391949 -114.638280 253 23804ft 363kts
11-Jun-17 11:29 34.366060 -114.757284 252 23794ft 363kts
11-Jun-17 11:30 34.340280 -114.875225 252 23805ft 364kts
11-Jun-17 11:31 34.314566 -114.993649 252 23829ft 363kts
11-Jun-17 11:32 34.288546 -115.111437 252 23840ft 361kts
11-Jun-17 11:33 34.262466 -115.229340 252 23845ft 362kts
11-Jun-17 11:34 34.237539 -115.347362 253 23830ft 362kts
11-Jun-17 11:35 34.215449 -115.451147 253 23823ft 364kts
11-Jun-17 11:36 34.189964 -115.568928 252 23839ft 362kts
11-Jun-17 11:37 34.164694 -115.686834 255 23860ft 363kts
11-Jun-17 11:38 34.152473 -115.808204 260 23902ft 362kts
11-Jun-17 11:39 34.140628 -115.930040 260 23881ft 368kts
11-Jun-17 11:40 34.128876 -116.051933 260 23885ft 364kts
11-Jun-17 11:41 34.116769 -116.173853 259 23870ft 366kts
11-Jun-17 11:42 34.104649 -116.294651 259 23903ft 363kts
11-Jun-17 11:43 34.091902 -116.415953 259 23907ft 363kts
11-Jun-17 11:44 34.078769 -116.536742 259 23915ft 364kts
11-Jun-17 11:45 34.066842 -116.657642 260 23289ft 359kts
11-Jun-17 11:46 34.055898 -116.775054 260 21522ft 348kts
11-Jun-17 11:47 34.045045 -116.889293 259 19688ft 339kts
11-Jun-17 11:48 34.030684 -117.000269 258 17892ft 330kts
11-Jun-17 11:49 34.017585 -117.108306 259 16100ft 322kts
11-Jun-17 11:50 34.004986 -117.213686 259 14469ft 307kts
11-Jun-17 11:51 33.992978 -117.314036 260 13799ft 302kts
11-Jun-17 11:52 33.981277 -117.413862 260 12558ft 298kts
11-Jun-17 11:53 33.978269 -117.512304 285 11653ft 300kts
11-Jun-17 11:54 34.012898 -117.603545 284 10253ft 286kts
11-Jun-17 11:55 34.007223 -117.684503 258 9989ft 216kts
11-Jun-17 11:56 33.999688 -117.755437 263 8850ft 210kts
11-Jun-17 11:57 33.993557 -117.819493 262 7674ft 182kts
11-Jun-17 11:58 33.987878 -117.877813 262 6003ft 172kts
11-Jun-17 11:59 33.982367 -117.934879 261 4888ft 177kts
11-Jun-17 12:00 33.976813 -117.990860 261 4916ft 162kts
11-Jun-17 12:01 33.971394 -118.045106 261 4757ft 161kts
11-Jun-17 12:02 33.966104 -118.098274 260 3598ft 162kts
11-Jun-17 12:03 33.960736 -118.151787 260 3614ft 159kts
11-Jun-17 12:04 33.955474 -118.204384 260 2681ft 156kts
11-Jun-17 12:05 33.950361 -118.255684 261 1780ft 152kts
11-Jun-17 12:06 33.945164 -118.306552 261 1365ft 147kts
11-Jun-17 12:07 33.940446 -118.352657 261 633ft 134kts
11-Jun-17 12:08 33.936108 -118.394938 262 140ft 95kts
11-Jun-17 12:09 33.934450 -118.407005 204 139ft 0kts
11-Jun-17 12:10 33.933464 -118.405860 131 139ft 22kts
11-Jun-17 12:11 33.932800 -118.405354 163 139ft 0kts
11-Jun-17 12:12 33.932800 -118.405354 163 139ft 0kts
11-Jun-17 12:13 33.932800 -118.405354 163 139ft 0kts
11-Jun-17 12:14 33.932800 -118.405354 163 139ft 0kts
11-Jun-17 12:15 33.932800 -118.405354 163 139ft 0kts
11-Jun-17 12:16 33.932800 -118.405354 163 139ft 0kts
11-Jun-17 12:17 33.932800 -118.405354 163 139ft 0kts
11-Jun-17 12:18 33.932800 -118.405354 163 139ft 0kts
11-Jun-17 12:19 33.932800 -118.405354 163 139ft 0kts
11-Jun-17 12:20 33.932800 -118.405354 163 139ft 0kts
11-Jun-17 12:21 33.932800 -118.405354 163 139ft 0kts
11-Jun-17 12:22 33.932800 -118.405354 163 139ft 0kts
11-Jun-17 12:23 33.932800 -118.405354 163 139ft 0kts

Navigation Log

Ident Type
Flight plan parsing failed, navigation log unavailable